Terminal Aerodrome Forecast
Issued by NWS Grand Rapids, MI

Home | Current Version | Previous Version | Text Only | Print | Product List | Glossary On
Versions: 1 2 3 4 5 6 7 8 9 10 11 12 13
000
FTUS43 KGRR 241120
TAFGRR
TAF
KGRR 241120Z 2412/2512 18005KT P6SM SCT100 BKN250
     FM241600 18007KT P6SM VCSH BKN070
     FM242100 12007KT P6SM VCSH BKN050=

USA.gov is the U.S. government's official web portal to all federal, state and local government web resources and services.